Terminal Aerodrome Forecast
Issued by NWS Greer, SC

Home | Current Version | Previous Version | Text Only | Print | Product List | Glossary On
Versions: 1 2 3 4 5 6 7 8 9 10 11 12 13 14 15 16 17 18 19 20 21 22 23 24 25 26 27 28 29 30 31 32 33 34 35 36 37
077
FTUS42 KGSP 270831 AAA
TAFAVL
TAF AMD
KAVL 270831Z 2709/2806 14006KT P6SM SCT025
      TEMPO 2710/2712 4SM BR BKN015
     FM271300 19003KT P6SM BKN035
     FM271500 19004KT P6SM SCT090
     FM272000 24005KT P6SM -SHRA VCTS BKN030CB
     FM272300 25003KT P6SM BKN045 PROB30 2723/2805 4SM -TSRA BR
      OVC025CB
     FM280500 VRB02KT 3SM BR BKN110=

USA.gov is the U.S. government's official web portal to all federal, state and local government web resources and services.